Flint, MI (48557)

12:35 PM EDT on July 27, 2016 (GMT -0400)
Dave Grand Blanc | | Change Station

Elev 797 ft 42.95 °N, 83.67 °W | Updated 0 second ago

Clear
Clear
92.5 °F
Feels Like 95 °F
N
1.1
Wind Variable Wind from NE
Gusts 4.9 mph

Today
High -- | Low -- °F
--% Chance of Precip.
Yesterday
High -- | Low -- °F
Precip. -- in
Pressure 29.98 in
Visibility 10.0 miles
Clouds Clear
Heat Index 95 °F
Dew Point 66 °F
Humidity 42%
Rainfall 0.00 in
Snow Depth Not available.
6:20 AM 9:00 PM
Last Quarter, 42% visible
METAR KFNT 271553Z 26010KT 10SM CLR 32/14 A3000 RMK AO2 SLP152 T03170139
Pressure 29.98 in
Visibility 10.0 miles
Clouds Clear
Heat Index 95 °F
Dew Point 66 °F
Humidity 42%
Rainfall 0.00 in
Snow Depth Not available.
6:20 AM 9:00 PM
Last Quarter, 42% visible
METAR KFNT 271553Z 26010KT 10SM CLR 32/14 A3000 RMK AO2 SLP152 T03170139

10-Day Weather Forecast

Almanac

Astronomy

Jul. 27, 2016 Rise Set
Actual Time
Civil Twilight
Nautical Twilight
Astronomical Twilight
Moon
Length of Visible Light
Length of Day
Tomorrow will be .
, % of the Moon is Illuminated

Today's Extremes

State Highs State Lows

Community

WunderPhotos

Upload Photos

1,927,880 photos uploaded!

WunderBlog® & News

Nearby

Air Quality

  Air Quality AQ Index Pollutant
Not available.

Snow Depth

Station Depth Elevation

Earthquake Activity

City Distance Mag. Time & Date
Minimum magnitude displayed is 2.5.

Coastal Water Temperatures

Place Temperature

Stations

Nearby Weather Stations

Station Location Temp. Windchill Dew Point Humidity Wind Precip. Elev Updated Type
                   

Watches & Warnings

There are currently no watches in effect.